x

Portland 12 Nm Southeast Of Portland,me (44007) Wave Buoy

6:50pm - Sun 25th Jun 2017 All times are EDT. -4 hours from GMT.

  • Sig Wave height 2.6ft
  • Swell Direction
  • Peak Period 8s
  • Average Period 4s
  • Wind
    18mph, 20mph gusts
  • Sea Temp 55°f
  • Air Temp 61°f
  • Sea Pressure 1009.9mb
  • Portland 12 Nm Southeast Of Portland,me
  • Portland 12 Nm Southeast Of Portland,me

More Historic Weather Station data

Upgrade to MSW Pro to gain access to the past 30 days of data for over 8000 Wavebouys and Weather Stations around the globe.

Join Pro

Comparision Forecast

View Surf forecast
   
Sun 06/25 6:50pm 2.5ft 8s 4s 18 20 mph 1009.9mb 55f 61f
5:50pm 2.5ft 8s 5s 13 16 mph 1010.1mb 55f 61f
4:50pm 2.5ft 9s 5s 13 13 mph 1010.3mb 55f 61f
3:50pm 2.5ft 9s 5s 9 11 mph 1010.8mb 55f 60f
2:50pm 2.5ft 9s 6s 11 13 mph 1011.1mb 54f 61f
1:50pm 2.5ft 8s 6s 9 9 mph 1011.6mb 55f 60f
12:50pm 2.5ft 8s 6s 11 13 mph 1011.8mb 56f 60f
11:50am 3ft 7s 7s 9 11 mph 1012.1mb 56f 60f
10:50am 3ft 8s 6s 7 7 mph 1012.4mb 56f 59f
9:50am 3ft 8s 6s 7 9 mph 1012.6mb 55f 59f
8:50am 2.5ft 7s 6s 2 2 mph 1012.7mb 54f 61f
7:50am 2.5ft 8s 6s 4 9 mph 1012.2mb 53f 60f
6:50am 2.5ft 8s 6s 9 11 mph 1011.5mb 53f 58f
5:50am 2.5ft 6s 5s 9 11 mph 1010.8mb 53f 60f
4:50am 2.5ft 6s 6s 9 9 mph 1010.3mb 54f 59f
3:50am 2.5ft 6s 6s 7 9 mph 1009.9mb 54f 60f
2:50am 2.5ft 6s 6s 9 11 mph 1009.4mb 54f 59f
1:50am 2.5ft 7s 5s 13 13 mph 1008.7mb 55f 62f
12:50am 2.5ft 7s 6s 11 13 mph 1008.2mb 55f 62f
Sat 06/24 11:50pm 3ft 7s 6s 11 11 mph 1007.8mb 55f 64f
10:50pm 3ft 7s 6s 9 11 mph 1007.2mb 55f 64f
9:50pm 2.5ft 7s 5s 9 9 mph 1006.6mb 55f 64f
8:50pm 2.5ft 7s 5s 11 11 mph 1005.3mb 56f 67f
7:50pm 3ft 7s 5s 7 7 mph 1004.8mb 56f 68f
6:50pm 3ft 7s 5s 9 11 mph 1004mb 56f 72f
5:50pm 3ft 7s 5s 9 11 mph 1003mb 56f 72f
4:50pm 3.5ft 6s 5s 2 4 mph 1002.5mb 56f 70f
3:50pm 3.5ft 7s 5s 4 7 mph 1001.8mb 55f 61f
2:50pm 4ft 6s 5s 2 4 mph 1000.9mb 54f 62f
1:50pm 4ft 7s 5s 9 11 mph 1000.2mb 54f 59f
12:50pm 4.5ft 7s 5s 11 13 mph 999.5mb 54f 60f
11:50am 4.5ft 6s 5s 11 13 mph 999.2mb 53f 59f
10:50am 3.5ft 7s 5s 16 16 mph 999.1mb 53f 59f
9:50am 4.5ft 7s 5s 13 13 mph 998.7mb 53f 59f
8:50am 5ft 7s 5s 9 11 mph 998.4mb 53f 58f
7:50am 4.5ft 7s 5s 16 16 mph 998mb 53f 60f
6:50am 3.5ft 6s 5s 16 18 mph 997.8mb 53f 59f
5:50am 3.5ft 7s 5s 20 22 mph 997.5mb 53f 60f
4:50am 3.5ft 6s 5s 16 18 mph 997.3mb 54f 59f
3:50am 4ft 7s 5s 16 18 mph 998mb 54f 59f
2:50am 4.5ft 6s 5s 18 20 mph 998.4mb 54f 60f
1:50am 4.5ft 6s 5s 13 16 mph 999.3mb 54f 59f
12:50am 4.5ft 6s 5s 13 16 mph 999.7mb 54f 60f
Fri 06/23 11:50pm 5ft 6s 5s 22 25 mph 999.8mb 54f 61f
10:50pm 5ft 6s 5s 16 18 mph 1000.3mb 54f 59f
9:50pm 5ft 5s 5s 22 27 mph 1000.1mb 54f 61f
8:50pm 4ft 5s 4s 20 25 mph 1000.6mb 54f 62f
7:50pm 3ft 5s 4s 22 25 mph 1000.9mb 55f 62f
6:50pm 1.6ft 8s 5s 7 9 mph 1001.9mb 55f 64f
5:50pm 1.6ft 4s 5s 7 13 mph 1002.8mb 56f 63f
4:50pm 1.6ft 8s 5s 4 7 mph 1003.8mb 57f 61f
3:50pm 1.6ft 6s 5s 4 7 mph 1005mb 56f 60f
2:50pm 1.6ft 6s 5s 2 2 mph 1005.6mb 57f 61f
1:50pm 1.6ft 5s 5s 7 7 mph 1006.1mb 57f 60f
12:50pm 1.6ft 6s 5s 2 4 mph 1007.1mb 56f 59f
11:50am 1.6ft 7s 4s  -  2 mph 1007.9mb 56f 58f
10:50am 1.6ft 6s 5s 2 7 mph 1008.2mb 55f 58f
9:50am 1.6ft 7s  -  4 4 mph 1008.5mb 55f 58f
8:50am 1.3ft 8s 5s 7 9 mph 1009mb 54f 58f
7:50am 1.6ft 8s 5s 9 13 mph 1009.2mb 54f 57f
6:50am 1.6ft 8s 4s 4 4 mph 1008.7mb 54f 59f
5:50am 1.6ft 4s 4s 4 7 mph 1008.6mb 54f 57f
4:50am 1.6ft 6s 5s 2 2 mph 1008.8mb 54f 58f
3:50am 1.6ft 6s 5s 2 2 mph 1009.2mb 55f 59f
2:50am 2ft 6s 5s 7 9 mph 1010mb 55f 59f
1:50am 2ft 6s 5s 4 7 mph 1010.4mb 55f 58f
12:50am 2ft 7s 5s 4 7 mph 1011.1mb 55f 58f
Thu 06/22 11:50pm 2ft 7s 5s 9 9 mph 1011.4mb 55f 58f
10:50pm 2ft 6s 4s 9 9 mph 1011.3mb 55f 59f
9:50pm 2.5ft 6s 4s 11 13 mph 1011.1mb 55f 60f
8:50pm 2ft 6s  -  13 13 mph 1011mb 55f 59f
7:50pm 2ft 6s 4s 13 16 mph 1011.1mb 55f 60f
6:50pm 2.5ft 6s 4s 11 11 mph 1010.8mb 55f 60f
5:50pm 2.5ft 3s 4s 13 16 mph 1010.9mb 55f 60f
4:50pm 2ft 7s 4s 13 16 mph 1011mb 55f 61f
3:50pm 2ft 6s 4s 16 18 mph 1011mb 56f 62f
2:50pm 2ft 8s 4s 11 16 mph 1011.4mb 56f 61f
1:50pm 2ft 8s 5s 11 13 mph 1012.2mb 56f 61f
12:50pm 1.6ft 6s 5s 11 13 mph 1012.5mb 57f 61f
11:50am 2ft 7s 5s 9 9 mph 1012.8mb 57f 60f
10:50am 2ft 7s 6s 9 11 mph 1013mb 57f 59f
9:50am 2ft 7s 6s 9 9 mph 1013.8mb 56f 59f
8:50am 2ft 6s 6s 9 9 mph 1013.6mb 56f 58f
7:50am 2ft 7s 5s 7 7 mph 1013.2mb 55f 58f
6:50am 2ft 6s 6s 7 7 mph 1013.2mb 55f 58f
5:50am 2ft 7s 6s 7 7 mph 1012.9mb 54f 57f
4:50am 2ft 7s 6s 7 9 mph 1012.4mb 54f 57f
3:50am 2.5ft 7s 6s 4 7 mph 1012.2mb 54f 59f
2:50am 2.5ft 5s 6s 4 7 mph 1012mb 54f 60f
1:50am 2.5ft 6s 6s 7 7 mph 1011.8mb 54f 59f
12:50am 2.5ft 8s 6s 9 9 mph 1011.4mb 54f 59f
Wed 06/21 11:50pm 2ft 8s 6s 7 9 mph 1011mb 55f 60f